sensor_id;sensor_type;location;lat;lon;timestamp;pressure;altitude;pressure_sealevel;temperature;humidity
41306;BME280;27051;50.376;19.152;2023-02-28T00:00:41;99343.17;;;3.36;45.99
41306;BME280;27051;50.376;19.152;2023-02-28T00:03:16;99340.25;;;3.36;46.03
41306;BME280;27051;50.376;19.152;2023-02-28T00:05:42;99340.52;;;3.35;45.91
41306;BME280;27051;50.376;19.152;2023-02-28T00:08:09;99334.34;;;3.33;46.11
41306;BME280;27051;50.376;19.152;2023-02-28T00:10:35;99337.11;;;3.35;46.24
41306;BME280;27051;50.376;19.152;2023-02-28T00:13:04;99343.60;;;3.34;46.19
41306;BME280;27051;50.376;19.152;2023-02-28T00:15:31;99345.23;;;3.29;46.17
41306;BME280;27051;50.376;19.152;2023-02-28T00:17:57;99345.42;;;3.28;46.41
41306;BME280;27051;50.376;19.152;2023-02-28T00:20:24;99343.00;;;3.30;46.32
41306;BME280;27051;50.376;19.152;2023-02-28T00:22:51;99343.73;;;3.28;46.32
41306;BME280;27051;50.376;19.152;2023-02-28T00:25:21;99347.70;;;3.23;46.51
41306;BME280;27051;50.376;19.152;2023-02-28T00:27:47;99353.50;;;3.23;46.53
41306;BME280;27051;50.376;19.152;2023-02-28T00:30:17;99354.06;;;3.31;46.73
41306;BME280;27051;50.376;19.152;2023-02-28T00:32:43;99344.29;;;3.33;46.57
41306;BME280;27051;50.376;19.152;2023-02-28T00:35:10;99344.19;;;3.35;46.56
41306;BME280;27051;50.376;19.152;2023-02-28T00:37:37;99344.08;;;3.35;46.56
41306;BME280;27051;50.376;19.152;2023-02-28T00:40:04;99342.58;;;3.32;46.38
41306;BME280;27051;50.376;19.152;2023-02-28T00:42:30;99340.96;;;3.27;46.40
41306;BME280;27051;50.376;19.152;2023-02-28T00:44:57;99340.93;;;3.17;46.62
41306;BME280;27051;50.376;19.152;2023-02-28T00:47:24;99343.77;;;3.14;46.77
41306;BME280;27051;50.376;19.152;2023-02-28T00:49:50;99344.19;;;3.09;46.82
41306;BME280;27051;50.376;19.152;2023-02-28T00:52:17;99343.33;;;3.06;46.87
41306;BME280;27051;50.376;19.152;2023-02-28T00:54:43;99350.26;;;3.02;47.00
41306;BME280;27051;50.376;19.152;2023-02-28T00:57:09;99353.89;;;3.02;46.90
41306;BME280;27051;50.376;19.152;2023-02-28T00:59:35;99354.88;;;3.01;46.89
41306;BME280;27051;50.376;19.152;2023-02-28T01:02:01;99350.56;;;2.99;47.06
41306;BME280;27051;50.376;19.152;2023-02-28T01:04:28;99351.63;;;2.98;46.98
41306;BME280;27051;50.376;19.152;2023-02-28T01:06:54;99350.04;;;2.98;47.23
41306;BME280;27051;50.376;19.152;2023-02-28T01:09:20;99351.73;;;2.97;47.13
41306;BME280;27051;50.376;19.152;2023-02-28T01:11:46;99353.52;;;2.95;47.20
41306;BME280;27051;50.376;19.152;2023-02-28T01:14:15;99352.41;;;2.96;47.20
41306;BME280;27051;50.376;19.152;2023-02-28T01:16:41;99351.83;;;2.97;47.19
41306;BME280;27051;50.376;19.152;2023-02-28T01:19:08;99352.05;;;3.00;47.25
41306;BME280;27051;50.376;19.152;2023-02-28T01:21:34;99349.36;;;3.02;47.24
41306;BME280;27051;50.376;19.152;2023-02-28T01:24:01;99345.64;;;3.03;47.22
41306;BME280;27051;50.376;19.152;2023-02-28T01:26:27;99350.11;;;3.03;47.25
41306;BME280;27051;50.376;19.152;2023-02-28T01:28:53;99348.02;;;3.00;47.24
41306;BME280;27051;50.376;19.152;2023-02-28T01:31:20;99346.50;;;3.03;47.19
41306;BME280;27051;50.376;19.152;2023-02-28T01:33:48;99346.13;;;3.04;47.14
41306;BME280;27051;50.376;19.152;2023-02-28T01:36:17;99346.98;;;3.05;47.18
41306;BME280;27051;50.376;19.152;2023-02-28T01:38:45;99346.61;;;3.03;47.25
41306;BME280;27051;50.376;19.152;2023-02-28T01:46:13;99351.93;;;3.06;47.20
41306;BME280;27051;50.376;19.152;2023-02-28T01:48:50;99352.84;;;3.05;47.27
41306;BME280;27051;50.376;19.152;2023-02-28T01:51:21;99348.23;;;2.99;47.01
41306;BME280;27051;50.376;19.152;2023-02-28T01:53:51;99345.41;;;2.97;47.19
41306;BME280;27051;50.376;19.152;2023-02-28T01:56:22;99343.39;;;2.98;47.19
41306;BME280;27051;50.376;19.152;2023-02-28T01:58:51;99343.19;;;3.00;46.99
41306;BME280;27051;50.376;19.152;2023-02-28T02:01:18;99340.14;;;2.96;47.16
41306;BME280;27051;50.376;19.152;2023-02-28T02:03:45;99341.42;;;2.98;47.19
41306;BME280;27051;50.376;19.152;2023-02-28T02:06:12;99337.58;;;2.94;47.29
41306;BME280;27051;50.376;19.152;2023-02-28T02:08:38;99336.27;;;2.96;47.43
41306;BME280;27051;50.376;19.152;2023-02-28T02:11:07;99339.03;;;2.96;47.43
41306;BME280;27051;50.376;19.152;2023-02-28T02:19:15;99336.19;;;3.01;47.37
41306;BME280;27051;50.376;19.152;2023-02-28T02:22:09;99331.59;;;2.96;47.39
41306;BME280;27051;50.376;19.152;2023-02-28T02:27:53;99329.75;;;2.78;47.71
41306;BME280;27051;50.376;19.152;2023-02-28T02:35:40;99327.30;;;2.67;47.72
41306;BME280;27051;50.376;19.152;2023-02-28T02:41:03;99328.35;;;2.57;47.79
41306;BME280;27051;50.376;19.152;2023-02-28T02:43:42;99326.02;;;2.50;47.73
41306;BME280;27051;50.376;19.152;2023-02-28T02:46:21;99328.83;;;2.42;47.66
41306;BME280;27051;50.376;19.152;2023-02-28T02:48:48;99334.77;;;2.33;47.79
41306;BME280;27051;50.376;19.152;2023-02-28T02:51:17;99331.20;;;2.32;48.05
41306;BME280;27051;50.376;19.152;2023-02-28T02:53:52;99330.51;;;2.32;48.08
41306;BME280;27051;50.376;19.152;2023-02-28T02:56:24;99327.16;;;2.30;47.89
41306;BME280;27051;50.376;19.152;2023-02-28T02:59:04;99324.23;;;2.21;48.07
41306;BME280;27051;50.376;19.152;2023-02-28T03:01:34;99325.38;;;2.20;48.17
41306;BME280;27051;50.376;19.152;2023-02-28T03:04:06;99328.27;;;2.17;48.14
41306;BME280;27051;50.376;19.152;2023-02-28T03:06:33;99328.89;;;2.14;48.37
41306;BME280;27051;50.376;19.152;2023-02-28T03:09:00;99331.13;;;2.10;48.34
41306;BME280;27051;50.376;19.152;2023-02-28T03:11:28;99328.59;;;2.03;48.30
41306;BME280;27051;50.376;19.152;2023-02-28T03:17:05;99325.89;;;1.91;48.33
41306;BME280;27051;50.376;19.152;2023-02-28T03:25:26;99330.23;;;1.75;48.48
41306;BME280;27051;50.376;19.152;2023-02-28T03:28:28;99331.52;;;1.71;48.53
41306;BME280;27051;50.376;19.152;2023-02-28T03:30:55;99335.48;;;1.69;48.57
41306;BME280;27051;50.376;19.152;2023-02-28T03:33:32;99337.06;;;1.65;48.50
41306;BME280;27051;50.376;19.152;2023-02-28T03:36:25;99345.05;;;1.62;48.54
41306;BME280;27051;50.376;19.152;2023-02-28T03:38:58;99342.63;;;1.53;48.57
41306;BME280;27051;50.376;19.152;2023-02-28T03:41:31;99346.48;;;1.52;48.68
41306;BME280;27051;50.376;19.152;2023-02-28T03:44:07;99348.45;;;1.52;48.79
41306;BME280;27051;50.376;19.152;2023-02-28T03:46:42;99349.00;;;1.50;48.75
41306;BME280;27051;50.376;19.152;2023-02-28T03:49:36;99347.68;;;1.50;48.84
41306;BME280;27051;50.376;19.152;2023-02-28T03:52:10;99350.97;;;1.45;48.78
41306;BME280;27051;50.376;19.152;2023-02-28T03:54:44;99359.35;;;1.46;48.74
41306;BME280;27051;50.376;19.152;2023-02-28T03:57:28;99357.60;;;1.37;48.51
41306;BME280;27051;50.376;19.152;2023-02-28T04:00:04;99363.30;;;1.13;48.73
41306;BME280;27051;50.376;19.152;2023-02-28T04:02:32;99363.54;;;0.99;48.87
41306;BME280;27051;50.376;19.152;2023-02-28T04:05:00;99362.61;;;0.97;49.20
41306;BME280;27051;50.376;19.152;2023-02-28T04:07:29;99362.00;;;1.11;49.28
41306;BME280;27051;50.376;19.152;2023-02-28T04:09:56;99360.29;;;1.14;49.11
41306;BME280;27051;50.376;19.152;2023-02-28T04:12:23;99358.55;;;1.10;49.17
41306;BME280;27051;50.376;19.152;2023-02-28T04:14:50;99362.08;;;1.03;49.23
41306;BME280;27051;50.376;19.152;2023-02-28T04:17:16;99364.77;;;1.00;49.18
41306;BME280;27051;50.376;19.152;2023-02-28T04:19:44;99369.64;;;0.99;49.52
41306;BME280;27051;50.376;19.152;2023-02-28T04:22:12;99369.98;;;1.10;49.38
41306;BME280;27051;50.376;19.152;2023-02-28T04:24:42;99367.38;;;1.17;49.44
41306;BME280;27051;50.376;19.152;2023-02-28T04:27:09;99365.90;;;1.22;49.38
41306;BME280;27051;50.376;19.152;2023-02-28T04:29:35;99370.55;;;1.12;49.40
41306;BME280;27051;50.376;19.152;2023-02-28T04:32:02;99371.73;;;1.17;49.57
41306;BME280;27051;50.376;19.152;2023-02-28T04:34:30;99372.36;;;1.26;49.39
41306;BME280;27051;50.376;19.152;2023-02-28T04:36:57;99374.66;;;1.10;49.32
41306;BME280;27051;50.376;19.152;2023-02-28T04:39:24;99377.08;;;1.04;49.56
41306;BME280;27051;50.376;19.152;2023-02-28T04:41:50;99377.87;;;1.02;49.41
41306;BME280;27051;50.376;19.152;2023-02-28T04:44:17;99382.25;;;1.08;49.49
41306;BME280;27051;50.376;19.152;2023-02-28T04:46:43;99383.83;;;1.08;49.54
41306;BME280;27051;50.376;19.152;2023-02-28T04:49:12;99387.80;;;1.07;49.62
41306;BME280;27051;50.376;19.152;2023-02-28T04:51:39;99387.23;;;1.05;49.55
41306;BME280;27051;50.376;19.152;2023-02-28T04:54:08;99385.94;;;1.02;49.51
41306;BME280;27051;50.376;19.152;2023-02-28T04:56:34;99387.85;;;1.02;49.56
41306;BME280;27051;50.376;19.152;2023-02-28T04:59:00;99389.60;;;1.07;49.72
41306;BME280;27051;50.376;19.152;2023-02-28T05:01:32;99390.40;;;1.07;49.56
41306;BME280;27051;50.376;19.152;2023-02-28T05:04:00;99394.08;;;1.05;49.50
41306;BME280;27051;50.376;19.152;2023-02-28T05:06:29;99393.63;;;0.92;49.58
41306;BME280;27051;50.376;19.152;2023-02-28T05:08:59;99392.51;;;0.84;49.65
41306;BME280;27051;50.376;19.152;2023-02-28T05:11:28;99396.77;;;0.65;49.44
41306;BME280;27051;50.376;19.152;2023-02-28T05:13:55;99397.41;;;0.44;49.57
41306;BME280;27051;50.376;19.152;2023-02-28T05:16:21;99397.23;;;0.36;49.83
41306;BME280;27051;50.376;19.152;2023-02-28T05:18:51;99401.06;;;0.34;50.01
41306;BME280;27051;50.376;19.152;2023-02-28T05:21:38;99402.92;;;0.35;50.01
41306;BME280;27051;50.376;19.152;2023-02-28T05:24:07;99403.89;;;0.30;49.94
41306;BME280;27051;50.376;19.152;2023-02-28T05:26:36;99404.62;;;0.28;49.93
41306;BME280;27051;50.376;19.152;2023-02-28T05:29:04;99405.31;;;0.29;50.05
41306;BME280;27051;50.376;19.152;2023-02-28T05:31:30;99409.70;;;0.38;50.25
41306;BME280;27051;50.376;19.152;2023-02-28T05:33:57;99415.89;;;0.44;50.25
41306;BME280;27051;50.376;19.152;2023-02-28T05:36:23;99417.21;;;0.45;50.22
41306;BME280;27051;50.376;19.152;2023-02-28T05:38:50;99416.16;;;0.48;50.30
41306;BME280;27051;50.376;19.152;2023-02-28T05:41:18;99420.86;;;0.42;50.11
41306;BME280;27051;50.376;19.152;2023-02-28T05:43:45;99422.35;;;0.39;50.23
41306;BME280;27051;50.376;19.152;2023-02-28T05:46:12;99420.97;;;0.32;50.07
41306;BME280;27051;50.376;19.152;2023-02-28T05:48:40;99421.02;;;0.29;50.19
41306;BME280;27051;50.376;19.152;2023-02-28T05:51:07;99424.21;;;0.31;50.21
41306;BME280;27051;50.376;19.152;2023-02-28T05:53:34;99427.06;;;0.33;50.24
41306;BME280;27051;50.376;19.152;2023-02-28T05:56:01;99429.17;;;0.26;50.15
41306;BME280;27051;50.376;19.152;2023-02-28T05:58:28;99432.08;;;0.25;50.31
41306;BME280;27051;50.376;19.152;2023-02-28T06:00:54;99436.32;;;0.30;50.42
41306;BME280;27051;50.376;19.152;2023-02-28T06:03:20;99437.95;;;0.30;50.38
41306;BME280;27051;50.376;19.152;2023-02-28T06:05:47;99442.83;;;0.33;50.45
41306;BME280;27051;50.376;19.152;2023-02-28T06:08:16;99442.55;;;0.35;50.52
41306;BME280;27051;50.376;19.152;2023-02-28T06:10:43;99442.84;;;0.38;50.60
41306;BME280;27051;50.376;19.152;2023-02-28T06:13:13;99448.70;;;0.36;50.55
41306;BME280;27051;50.376;19.152;2023-02-28T06:15:39;99450.53;;;0.35;50.63
41306;BME280;27051;50.376;19.152;2023-02-28T06:18:06;99454.77;;;0.36;50.74
41306;BME280;27051;50.376;19.152;2023-02-28T06:20:35;99458.89;;;0.38;50.64
41306;BME280;27051;50.376;19.152;2023-02-28T06:23:01;99459.64;;;0.39;50.62
41306;BME280;27051;50.376;19.152;2023-02-28T06:25:28;99456.95;;;0.42;50.76
41306;BME280;27051;50.376;19.152;2023-02-28T06:27:58;99456.75;;;0.56;50.96
41306;BME280;27051;50.376;19.152;2023-02-28T06:30:25;99458.19;;;0.73;51.00
41306;BME280;27051;50.376;19.152;2023-02-28T06:32:51;99456.38;;;0.86;51.00
41306;BME280;27051;50.376;19.152;2023-02-28T06:35:26;99457.17;;;0.96;50.88
41306;BME280;27051;50.376;19.152;2023-02-28T06:37:52;99463.79;;;1.03;50.83
41306;BME280;27051;50.376;19.152;2023-02-28T06:40:22;99463.16;;;1.08;50.83
41306;BME280;27051;50.376;19.152;2023-02-28T06:42:48;99462.33;;;1.20;50.84
41306;BME280;27051;50.376;19.152;2023-02-28T06:45:16;99460.41;;;1.27;50.73
41306;BME280;27051;50.376;19.152;2023-02-28T06:47:44;99465.29;;;1.35;50.73
41306;BME280;27051;50.376;19.152;2023-02-28T06:50:20;99463.67;;;1.45;50.75
41306;BME280;27051;50.376;19.152;2023-02-28T06:52:48;99465.75;;;1.60;50.81
41306;BME280;27051;50.376;19.152;2023-02-28T06:55:16;99468.63;;;1.68;50.72
41306;BME280;27051;50.376;19.152;2023-02-28T06:57:44;99464.29;;;1.78;50.71
41306;BME280;27051;50.376;19.152;2023-02-28T07:00:11;99465.35;;;1.87;50.78
41306;BME280;27051;50.376;19.152;2023-02-28T07:02:38;99469.20;;;1.90;50.53
41306;BME280;27051;50.376;19.152;2023-02-28T07:05:06;99472.73;;;2.02;50.66
41306;BME280;27051;50.376;19.152;2023-02-28T07:07:34;99470.08;;;2.17;50.53
41306;BME280;27051;50.376;19.152;2023-02-28T07:10:00;99469.40;;;2.35;50.71
41306;BME280;27051;50.376;19.152;2023-02-28T07:12:26;99472.52;;;2.52;50.55
41306;BME280;27051;50.376;19.152;2023-02-28T07:14:52;99474.48;;;2.63;50.39
41306;BME280;27051;50.376;19.152;2023-02-28T07:17:19;99470.80;;;2.69;50.21
41306;BME280;27051;50.376;19.152;2023-02-28T07:19:45;99469.74;;;2.81;50.14
41306;BME280;27051;50.376;19.152;2023-02-28T07:22:11;99466.84;;;2.91;50.24
41306;BME280;27051;50.376;19.152;2023-02-28T07:24:38;99467.98;;;3.02;50.19
41306;BME280;27051;50.376;19.152;2023-02-28T07:27:13;99464.08;;;3.15;50.09
41306;BME280;27051;50.376;19.152;2023-02-28T07:29:41;99467.14;;;3.29;50.07
41306;BME280;27051;50.376;19.152;2023-02-28T07:32:08;99468.73;;;3.42;49.54
41306;BME280;27051;50.376;19.152;2023-02-28T07:34:35;99473.84;;;3.50;49.47
41306;BME280;27051;50.376;19.152;2023-02-28T07:37:06;99472.33;;;3.56;49.48
41306;BME280;27051;50.376;19.152;2023-02-28T07:39:38;99473.98;;;3.69;49.46
41306;BME280;27051;50.376;19.152;2023-02-28T07:42:05;99472.42;;;3.79;49.21
41306;BME280;27051;50.376;19.152;2023-02-28T07:44:32;99472.48;;;3.95;49.26
41306;BME280;27051;50.376;19.152;2023-02-28T07:47:01;99468.17;;;4.13;49.16
41306;BME280;27051;50.376;19.152;2023-02-28T07:49:29;99473.42;;;4.31;48.45
41306;BME280;27051;50.376;19.152;2023-02-28T07:51:56;99474.20;;;4.48;48.30
41306;BME280;27051;50.376;19.152;2023-02-28T07:54:23;99468.93;;;4.64;48.22
41306;BME280;27051;50.376;19.152;2023-02-28T07:56:50;99471.86;;;4.86;47.91
41306;BME280;27051;50.376;19.152;2023-02-28T07:59:17;99467.09;;;5.09;47.61
41306;BME280;27051;50.376;19.152;2023-02-28T08:01:43;99464.50;;;5.34;47.36
41306;BME280;27051;50.376;19.152;2023-02-28T08:04:09;99463.08;;;5.59;47.50
41306;BME280;27051;50.376;19.152;2023-02-28T08:06:36;99463.89;;;5.81;46.85
41306;BME280;27051;50.376;19.152;2023-02-28T08:09:06;99464.86;;;5.99;46.48
41306;BME280;27051;50.376;19.152;2023-02-28T08:11:33;99468.10;;;6.13;46.36
41306;BME280;27051;50.376;19.152;2023-02-28T08:14:00;99468.69;;;6.23;45.75
41306;BME280;27051;50.376;19.152;2023-02-28T08:16:29;99468.91;;;6.21;45.12
41306;BME280;27051;50.376;19.152;2023-02-28T08:18:56;99471.95;;;6.21;45.17
41306;BME280;27051;50.376;19.152;2023-02-28T08:21:23;99474.00;;;6.17;44.76
41306;BME280;27051;50.376;19.152;2023-02-28T08:23:52;99475.46;;;6.15;44.51
41306;BME280;27051;50.376;19.152;2023-02-28T08:26:21;99469.87;;;6.30;44.85
41306;BME280;27051;50.376;19.152;2023-02-28T08:28:47;99471.02;;;6.50;43.93
41306;BME280;27051;50.376;19.152;2023-02-28T08:31:16;99470.32;;;6.58;43.45
41306;BME280;27051;50.376;19.152;2023-02-28T08:33:43;99471.89;;;6.53;42.88
41306;BME280;27051;50.376;19.152;2023-02-28T08:36:12;99467.85;;;6.44;43.43
41306;BME280;27051;50.376;19.152;2023-02-28T08:38:40;99468.48;;;6.47;43.74
41306;BME280;27051;50.376;19.152;2023-02-28T08:41:10;99465.95;;;6.49;43.48
41306;BME280;27051;50.376;19.152;2023-02-28T08:43:38;99466.13;;;6.46;43.57
41306;BME280;27051;50.376;19.152;2023-02-28T08:46:06;99467.92;;;6.57;44.03
41306;BME280;27051;50.376;19.152;2023-02-28T08:48:34;99472.44;;;6.67;43.68
41306;BME280;27051;50.376;19.152;2023-02-28T08:51:08;99476.00;;;6.69;43.86
41306;BME280;27051;50.376;19.152;2023-02-28T08:53:37;99477.23;;;6.64;43.39
41306;BME280;27051;50.376;19.152;2023-02-28T08:56:12;99475.52;;;6.57;43.29
41306;BME280;27051;50.376;19.152;2023-02-28T08:58:39;99476.09;;;6.51;42.99
41306;BME280;27051;50.376;19.152;2023-02-28T09:01:15;99473.08;;;6.37;42.88
41306;BME280;27051;50.376;19.152;2023-02-28T09:03:46;99474.36;;;6.22;43.02
41306;BME280;27051;50.376;19.152;2023-02-28T09:06:21;99472.31;;;6.13;43.10
41306;BME280;27051;50.376;19.152;2023-02-28T09:08:49;99471.52;;;6.11;42.59
41306;BME280;27051;50.376;19.152;2023-02-28T09:11:17;99471.90;;;6.01;42.66
41306;BME280;27051;50.376;19.152;2023-02-28T09:14:03;99472.35;;;5.95;42.51
41306;BME280;27051;50.376;19.152;2023-02-28T09:16:32;99473.89;;;5.91;42.65
41306;BME280;27051;50.376;19.152;2023-02-28T09:19:04;99474.86;;;5.89;42.85
41306;BME280;27051;50.376;19.152;2023-02-28T09:21:31;99474.98;;;5.84;42.87
41306;BME280;27051;50.376;19.152;2023-02-28T09:23:58;99477.96;;;5.89;42.66
41306;BME280;27051;50.376;19.152;2023-02-28T09:26:27;99480.14;;;5.92;42.68
41306;BME280;27051;50.376;19.152;2023-02-28T09:28:54;99478.52;;;5.99;42.43
41306;BME280;27051;50.376;19.152;2023-02-28T09:31:25;99479.69;;;6.01;42.64
41306;BME280;27051;50.376;19.152;2023-02-28T09:33:55;99481.16;;;6.16;42.41
41306;BME280;27051;50.376;19.152;2023-02-28T09:36:22;99481.66;;;6.30;42.19
41306;BME280;27051;50.376;19.152;2023-02-28T09:38:49;99484.61;;;6.46;42.21
41306;BME280;27051;50.376;19.152;2023-02-28T09:41:19;99482.05;;;6.61;42.09
41306;BME280;27051;50.376;19.152;2023-02-28T09:43:50;99481.69;;;6.73;41.21
41306;BME280;27051;50.376;19.152;2023-02-28T09:46:39;99483.59;;;6.77;41.23
41306;BME280;27051;50.376;19.152;2023-02-28T09:49:12;99483.83;;;6.87;41.17
41306;BME280;27051;50.376;19.152;2023-02-28T09:51:52;99484.67;;;7.00;41.04
41306;BME280;27051;50.376;19.152;2023-02-28T09:54:23;99485.64;;;7.12;40.96
41306;BME280;27051;50.376;19.152;2023-02-28T09:56:53;99488.88;;;7.09;39.46
41306;BME280;27051;50.376;19.152;2023-02-28T09:59:30;99487.63;;;6.99;40.44
41306;BME280;27051;50.376;19.152;2023-02-28T10:04:47;99493.02;;;7.00;40.33
41306;BME280;27051;50.376;19.152;2023-02-28T10:10:10;99493.64;;;7.09;40.06
41306;BME280;27051;50.376;19.152;2023-02-28T10:12:44;99491.08;;;6.95;39.67
41306;BME280;27051;50.376;19.152;2023-02-28T10:15:16;99488.50;;;6.89;40.37
41306;BME280;27051;50.376;19.152;2023-02-28T10:17:46;99484.64;;;6.91;40.37
41306;BME280;27051;50.376;19.152;2023-02-28T10:20:19;99483.59;;;6.96;40.86
41306;BME280;27051;50.376;19.152;2023-02-28T10:25:22;99483.67;;;7.11;40.70
41306;BME280;27051;50.376;19.152;2023-02-28T10:27:53;99481.10;;;7.12;40.47
41306;BME280;27051;50.376;19.152;2023-02-28T10:30:20;99476.32;;;7.14;40.56
41306;BME280;27051;50.376;19.152;2023-02-28T10:32:50;99476.40;;;7.16;40.21
41306;BME280;27051;50.376;19.152;2023-02-28T10:35:20;99473.39;;;7.17;40.01
41306;BME280;27051;50.376;19.152;2023-02-28T10:37:49;99471.63;;;7.18;40.09
41306;BME280;27051;50.376;19.152;2023-02-28T10:43:04;99467.45;;;7.33;40.06
41306;BME280;27051;50.376;19.152;2023-02-28T10:45:53;99470.80;;;7.60;40.15
41306;BME280;27051;50.376;19.152;2023-02-28T10:58:27;99444.66;;;11.72;37.05
41306;BME280;27051;50.376;19.152;2023-02-28T11:00:54;99438.10;;;12.88;36.18
41306;BME280;27051;50.376;19.152;2023-02-28T11:03:28;99437.16;;;13.87;36.53
41306;BME280;27051;50.376;19.152;2023-02-28T11:05:56;99435.05;;;14.86;35.09
41306;BME280;27051;50.376;19.152;2023-02-28T11:08:23;99432.08;;;15.46;33.66
41306;BME280;27051;50.376;19.152;2023-02-28T11:10:56;99432.36;;;15.92;33.25
41306;BME280;27051;50.376;19.152;2023-02-28T11:13:35;99424.66;;;16.62;33.62
41306;BME280;27051;50.376;19.152;2023-02-28T11:16:05;99423.14;;;17.20;33.66
41306;BME280;27051;50.376;19.152;2023-02-28T11:18:42;99421.01;;;17.99;33.55
41306;BME280;27051;50.376;19.152;2023-02-28T11:21:16;99416.14;;;18.78;32.36
41306;BME280;27051;50.376;19.152;2023-02-28T11:23:44;99419.17;;;19.57;31.88
41306;BME280;27051;50.376;19.152;2023-02-28T11:27:01;99410.91;;;20.25;30.02
41306;BME280;27051;50.376;19.152;2023-02-28T11:29:31;99404.88;;;20.77;29.88
41306;BME280;27051;50.376;19.152;2023-02-28T11:34:36;99401.42;;;21.58;29.11
41306;BME280;27051;50.376;19.152;2023-02-28T11:37:03;99395.88;;;22.16;28.57
41306;BME280;27051;50.376;19.152;2023-02-28T11:39:36;99396.76;;;22.39;28.15
41306;BME280;27051;50.376;19.152;2023-02-28T11:42:13;99396.70;;;22.82;26.92
41306;BME280;27051;50.376;19.152;2023-02-28T11:47:42;99392.77;;;23.75;26.12
41306;BME280;27051;50.376;19.152;2023-02-28T11:50:26;99393.09;;;24.00;24.48
41306;BME280;27051;50.376;19.152;2023-02-28T11:53:36;99392.15;;;23.64;25.13
41306;BME280;27051;50.376;19.152;2023-02-28T11:56:10;99391.15;;;23.48;24.83
41306;BME280;27051;50.376;19.152;2023-02-28T12:04:11;99376.90;;;25.57;24.05
41306;BME280;27051;50.376;19.152;2023-02-28T12:07:00;99375.61;;;26.36;23.72
41306;BME280;27051;50.376;19.152;2023-02-28T12:12:38;99370.64;;;27.69;22.21
41306;BME280;27051;50.376;19.152;2023-02-28T12:18:02;99373.92;;;28.15;21.37
41306;BME280;27051;50.376;19.152;2023-02-28T12:20:46;99368.88;;;28.07;21.29
41306;BME280;27051;50.376;19.152;2023-02-28T12:28:59;99362.57;;;29.25;20.11
41306;BME280;27051;50.376;19.152;2023-02-28T12:31:36;99359.12;;;29.56;18.84
41306;BME280;27051;50.376;19.152;2023-02-28T12:34:12;99357.54;;;29.92;18.75
41306;BME280;27051;50.376;19.152;2023-02-28T12:36:43;99351.80;;;29.70;17.18
41306;BME280;27051;50.376;19.152;2023-02-28T12:39:38;99346.48;;;29.44;18.28
41306;BME280;27051;50.376;19.152;2023-02-28T12:42:12;99343.81;;;29.98;17.92
41306;BME280;27051;50.376;19.152;2023-02-28T12:44:44;99342.41;;;30.45;17.57
41306;BME280;27051;50.376;19.152;2023-02-28T12:47:16;99343.94;;;30.72;17.62
41306;BME280;27051;50.376;19.152;2023-02-28T12:49:49;99342.55;;;30.91;17.53
41306;BME280;27051;50.376;19.152;2023-02-28T12:52:30;99335.47;;;31.27;17.55
41306;BME280;27051;50.376;19.152;2023-02-28T12:55:05;99336.09;;;31.77;16.68
41306;BME280;27051;50.376;19.152;2023-02-28T12:57:48;99335.23;;;31.77;16.82
41306;BME280;27051;50.376;19.152;2023-02-28T13:00:19;99334.70;;;32.25;16.88
41306;BME280;27051;50.376;19.152;2023-02-28T13:11:03;99329.03;;;33.72;16.04
41306;BME280;27051;50.376;19.152;2023-02-28T13:13:30;99328.67;;;33.97;15.86
41306;BME280;27051;50.376;19.152;2023-02-28T13:15:59;99325.87;;;34.47;15.40
41306;BME280;27051;50.376;19.152;2023-02-28T13:18:38;99326.00;;;34.81;15.30
41306;BME280;27051;50.376;19.152;2023-02-28T13:21:22;99325.32;;;35.06;14.69
41306;BME280;27051;50.376;19.152;2023-02-28T13:26:18;99322.61;;;34.83;14.79
41306;BME280;27051;50.376;19.152;2023-02-28T13:31:17;99319.15;;;35.47;14.69
41306;BME280;27051;50.376;19.152;2023-02-28T13:34:13;99317.70;;;35.80;14.16
41306;BME280;27051;50.376;19.152;2023-02-28T13:36:39;99316.79;;;35.93;13.76
41306;BME280;27051;50.376;19.152;2023-02-28T13:47:29;99310.86;;;36.25;13.56
41306;BME280;27051;50.376;19.152;2023-02-28T13:50:36;99313.73;;;36.14;13.51
41306;BME280;27051;50.376;19.152;2023-02-28T13:55:53;99310.98;;;36.01;13.16
41306;BME280;27051;50.376;19.152;2023-02-28T13:58:43;99310.52;;;35.80;13.21
41306;BME280;27051;50.376;19.152;2023-02-28T14:04:14;99304.10;;;34.99;12.74
41306;BME280;27051;50.376;19.152;2023-02-28T14:06:51;99305.38;;;34.46;12.97
41306;BME280;27051;50.376;19.152;2023-02-28T14:09:24;99304.63;;;33.87;12.96
41306;BME280;27051;50.376;19.152;2023-02-28T14:11:52;99292.82;;;33.50;13.19
41306;BME280;27051;50.376;19.152;2023-02-28T14:17:05;99298.83;;;33.10;13.02
41306;BME280;27051;50.376;19.152;2023-02-28T14:19:36;99293.41;;;32.70;13.09
41306;BME280;27051;50.376;19.152;2023-02-28T14:22:29;99287.85;;;32.53;13.05
41306;BME280;27051;50.376;19.152;2023-02-28T14:28:18;99285.56;;;31.85;13.04
41306;BME280;27051;50.376;19.152;2023-02-28T14:30:57;99281.36;;;31.78;13.04
41306;BME280;27051;50.376;19.152;2023-02-28T14:36:36;99273.80;;;31.80;13.35
41306;BME280;27051;50.376;19.152;2023-02-28T14:39:26;99277.55;;;31.56;13.63
41306;BME280;27051;50.376;19.152;2023-02-28T14:41:53;99274.90;;;31.72;13.25
41306;BME280;27051;50.376;19.152;2023-02-28T14:44:26;99273.77;;;31.75;13.30
41306;BME280;27051;50.376;19.152;2023-02-28T14:46:57;99271.94;;;31.05;13.27
41306;BME280;27051;50.376;19.152;2023-02-28T14:49:34;99268.52;;;30.34;13.53
41306;BME280;27051;50.376;19.152;2023-02-28T14:52:15;99269.10;;;29.05;13.66
41306;BME280;27051;50.376;19.152;2023-02-28T14:54:43;99269.84;;;26.48;14.20
41306;BME280;27051;50.376;19.152;2023-02-28T14:57:22;99272.60;;;24.56;14.85
41306;BME280;27051;50.376;19.152;2023-02-28T15:00:00;99277.08;;;22.54;15.76
41306;BME280;27051;50.376;19.152;2023-02-28T15:02:31;99278.72;;;20.89;16.12
41306;BME280;27051;50.376;19.152;2023-02-28T15:07:36;99288.54;;;18.43;17.26
41306;BME280;27051;50.376;19.152;2023-02-28T15:13:10;99293.54;;;16.47;18.37